sensor_id;sensor_type;location;lat;lon;timestamp;P1;durP1;ratioP1;P2;durP2;ratioP2
7199;SDS011;3641;49.082;8.200;2023-08-31T00:00:08;6.32;;;2.60;;
7199;SDS011;3641;49.082;8.200;2023-08-31T00:02:36;4.72;;;2.25;;
7199;SDS011;3641;49.082;8.200;2023-08-31T00:05:02;3.67;;;2.22;;
7199;SDS011;3641;49.082;8.200;2023-08-31T00:07:30;6.15;;;2.53;;
7199;SDS011;3641;49.082;8.200;2023-08-31T00:09:58;5.20;;;2.65;;
7199;SDS011;3641;49.082;8.200;2023-08-31T00:12:24;3.65;;;2.40;;
7199;SDS011;3641;49.082;8.200;2023-08-31T00:14:51;4.22;;;2.30;;
7199;SDS011;3641;49.082;8.200;2023-08-31T00:17:18;3.78;;;2.28;;
7199;SDS011;3641;49.082;8.200;2023-08-31T00:19:44;5.00;;;2.30;;
7199;SDS011;3641;49.082;8.200;2023-08-31T00:22:10;5.53;;;2.70;;
7199;SDS011;3641;49.082;8.200;2023-08-31T00:24:37;6.28;;;2.85;;
7199;SDS011;3641;49.082;8.200;2023-08-31T00:27:05;5.70;;;2.53;;
7199;SDS011;3641;49.082;8.200;2023-08-31T00:29:32;6.25;;;2.75;;
7199;SDS011;3641;49.082;8.200;2023-08-31T00:31:58;4.95;;;2.53;;
7199;SDS011;3641;49.082;8.200;2023-08-31T00:34:25;5.18;;;2.60;;
7199;SDS011;3641;49.082;8.200;2023-08-31T00:36:52;4.45;;;2.65;;
7199;SDS011;3641;49.082;8.200;2023-08-31T00:39:18;4.78;;;2.45;;
7199;SDS011;3641;49.082;8.200;2023-08-31T00:41:46;6.03;;;2.60;;
7199;SDS011;3641;49.082;8.200;2023-08-31T00:44:13;4.35;;;2.50;;
7199;SDS011;3641;49.082;8.200;2023-08-31T00:46:40;7.50;;;2.63;;
7199;SDS011;3641;49.082;8.200;2023-08-31T00:49:07;7.55;;;2.70;;
7199;SDS011;3641;49.082;8.200;2023-08-31T00:51:34;4.22;;;2.75;;
7199;SDS011;3641;49.082;8.200;2023-08-31T00:54:02;6.00;;;3.08;;
7199;SDS011;3641;49.082;8.200;2023-08-31T00:56:30;3.17;;;2.38;;
7199;SDS011;3641;49.082;8.200;2023-08-31T00:58:57;4.65;;;2.95;;
7199;SDS011;3641;49.082;8.200;2023-08-31T01:01:26;6.53;;;3.50;;
7199;SDS011;3641;49.082;8.200;2023-08-31T01:04:03;8.73;;;3.10;;
7199;SDS011;3641;49.082;8.200;2023-08-31T01:06:46;6.07;;;3.13;;
7199;SDS011;3641;49.082;8.200;2023-08-31T01:09:22;6.53;;;3.55;;
7199;SDS011;3641;49.082;8.200;2023-08-31T01:11:58;6.32;;;3.78;;
7199;SDS011;3641;49.082;8.200;2023-08-31T01:14:31;5.90;;;3.10;;
7199;SDS011;3641;49.082;8.200;2023-08-31T01:17:01;7.18;;;3.70;;
7199;SDS011;3641;49.082;8.200;2023-08-31T01:19:45;5.47;;;3.00;;
7199;SDS011;3641;49.082;8.200;2023-08-31T01:22:16;4.95;;;3.03;;
7199;SDS011;3641;49.082;8.200;2023-08-31T01:24:54;6.35;;;2.95;;
7199;SDS011;3641;49.082;8.200;2023-08-31T01:27:21;6.80;;;3.33;;
7199;SDS011;3641;49.082;8.200;2023-08-31T01:29:47;5.35;;;3.13;;
7199;SDS011;3641;49.082;8.200;2023-08-31T01:32:14;8.70;;;3.70;;
7199;SDS011;3641;49.082;8.200;2023-08-31T01:34:40;6.40;;;3.00;;
7199;SDS011;3641;49.082;8.200;2023-08-31T01:37:08;11.63;;;3.72;;
7199;SDS011;3641;49.082;8.200;2023-08-31T01:39:39;6.55;;;3.50;;
7199;SDS011;3641;49.082;8.200;2023-08-31T01:42:13;7.57;;;3.53;;
7199;SDS011;3641;49.082;8.200;2023-08-31T01:44:42;5.75;;;3.72;;
7199;SDS011;3641;49.082;8.200;2023-08-31T01:47:13;9.48;;;4.07;;
7199;SDS011;3641;49.082;8.200;2023-08-31T01:49:42;7.97;;;4.85;;
7199;SDS011;3641;49.082;8.200;2023-08-31T01:52:09;7.03;;;3.53;;
7199;SDS011;3641;49.082;8.200;2023-08-31T01:54:35;8.05;;;3.95;;
7199;SDS011;3641;49.082;8.200;2023-08-31T01:57:03;8.95;;;4.28;;
7199;SDS011;3641;49.082;8.200;2023-08-31T01:59:32;6.15;;;4.05;;
7199;SDS011;3641;49.082;8.200;2023-08-31T02:01:59;8.43;;;4.80;;
7199;SDS011;3641;49.082;8.200;2023-08-31T02:04:25;8.15;;;4.60;;
7199;SDS011;3641;49.082;8.200;2023-08-31T02:06:52;8.32;;;4.80;;
7199;SDS011;3641;49.082;8.200;2023-08-31T02:09:18;7.68;;;4.70;;
7199;SDS011;3641;49.082;8.200;2023-08-31T02:11:44;8.88;;;4.32;;
7199;SDS011;3641;49.082;8.200;2023-08-31T02:14:11;6.93;;;4.57;;
7199;SDS011;3641;49.082;8.200;2023-08-31T02:16:39;7.75;;;4.80;;
7199;SDS011;3641;49.082;8.200;2023-08-31T02:19:05;9.27;;;4.95;;
7199;SDS011;3641;49.082;8.200;2023-08-31T02:21:32;7.40;;;4.47;;
7199;SDS011;3641;49.082;8.200;2023-08-31T02:23:58;8.38;;;5.00;;
7199;SDS011;3641;49.082;8.200;2023-08-31T02:26:24;7.65;;;4.90;;
7199;SDS011;3641;49.082;8.200;2023-08-31T02:28:51;7.82;;;5.10;;
7199;SDS011;3641;49.082;8.200;2023-08-31T02:31:17;7.45;;;4.78;;
7199;SDS011;3641;49.082;8.200;2023-08-31T02:33:46;10.90;;;5.28;;
7199;SDS011;3641;49.082;8.200;2023-08-31T02:36:13;8.98;;;5.40;;
7199;SDS011;3641;49.082;8.200;2023-08-31T02:38:39;9.55;;;5.78;;
7199;SDS011;3641;49.082;8.200;2023-08-31T02:41:05;7.38;;;5.25;;
7199;SDS011;3641;49.082;8.200;2023-08-31T02:43:32;9.02;;;5.50;;
7199;SDS011;3641;49.082;8.200;2023-08-31T02:45:59;7.57;;;5.28;;
7199;SDS011;3641;49.082;8.200;2023-08-31T02:48:26;9.38;;;5.53;;
7199;SDS011;3641;49.082;8.200;2023-08-31T02:50:55;9.80;;;5.28;;
7199;SDS011;3641;49.082;8.200;2023-08-31T02:53:22;8.05;;;5.68;;
7199;SDS011;3641;49.082;8.200;2023-08-31T02:55:49;9.05;;;5.93;;
7199;SDS011;3641;49.082;8.200;2023-08-31T02:58:15;7.45;;;5.40;;
7199;SDS011;3641;49.082;8.200;2023-08-31T03:00:42;9.45;;;5.65;;
7199;SDS011;3641;49.082;8.200;2023-08-31T03:03:10;8.57;;;5.35;;
7199;SDS011;3641;49.082;8.200;2023-08-31T03:05:37;9.48;;;5.75;;
7199;SDS011;3641;49.082;8.200;2023-08-31T03:08:05;10.55;;;5.68;;
7199;SDS011;3641;49.082;8.200;2023-08-31T03:10:31;9.55;;;5.70;;
7199;SDS011;3641;49.082;8.200;2023-08-31T03:12:58;10.23;;;6.10;;
7199;SDS011;3641;49.082;8.200;2023-08-31T03:15:24;9.98;;;5.78;;
7199;SDS011;3641;49.082;8.200;2023-08-31T03:17:51;8.02;;;5.70;;
7199;SDS011;3641;49.082;8.200;2023-08-31T03:20:17;9.93;;;5.63;;
7199;SDS011;3641;49.082;8.200;2023-08-31T03:22:44;9.13;;;5.88;;
7199;SDS011;3641;49.082;8.200;2023-08-31T03:25:11;9.40;;;5.30;;
7199;SDS011;3641;49.082;8.200;2023-08-31T03:27:38;10.23;;;5.63;;
7199;SDS011;3641;49.082;8.200;2023-08-31T03:30:05;7.82;;;5.38;;
7199;SDS011;3641;49.082;8.200;2023-08-31T03:32:32;9.90;;;5.25;;
7199;SDS011;3641;49.082;8.200;2023-08-31T03:34:58;9.30;;;6.43;;
7199;SDS011;3641;49.082;8.200;2023-08-31T03:37:25;10.00;;;6.20;;
7199;SDS011;3641;49.082;8.200;2023-08-31T03:39:52;10.60;;;5.80;;
7199;SDS011;3641;49.082;8.200;2023-08-31T03:42:20;8.23;;;5.35;;
7199;SDS011;3641;49.082;8.200;2023-08-31T03:44:46;7.78;;;5.07;;
7199;SDS011;3641;49.082;8.200;2023-08-31T03:47:12;8.95;;;5.38;;
7199;SDS011;3641;49.082;8.200;2023-08-31T03:49:39;9.70;;;5.50;;
7199;SDS011;3641;49.082;8.200;2023-08-31T03:52:05;10.15;;;5.43;;
7199;SDS011;3641;49.082;8.200;2023-08-31T03:54:32;8.80;;;5.50;;
7199;SDS011;3641;49.082;8.200;2023-08-31T03:56:58;7.68;;;5.32;;
7199;SDS011;3641;49.082;8.200;2023-08-31T03:59:26;9.50;;;5.53;;
7199;SDS011;3641;49.082;8.200;2023-08-31T04:01:52;10.50;;;5.50;;
7199;SDS011;3641;49.082;8.200;2023-08-31T04:04:19;10.25;;;5.38;;
7199;SDS011;3641;49.082;8.200;2023-08-31T04:06:45;9.82;;;4.88;;
7199;SDS011;3641;49.082;8.200;2023-08-31T04:09:11;9.52;;;5.38;;
7199;SDS011;3641;49.082;8.200;2023-08-31T04:11:38;8.13;;;5.30;;
7199;SDS011;3641;49.082;8.200;2023-08-31T04:14:04;7.78;;;5.00;;
7199;SDS011;3641;49.082;8.200;2023-08-31T04:16:32;11.30;;;4.97;;
7199;SDS011;3641;49.082;8.200;2023-08-31T04:18:59;9.90;;;5.05;;
7199;SDS011;3641;49.082;8.200;2023-08-31T04:21:25;7.75;;;4.47;;
7199;SDS011;3641;49.082;8.200;2023-08-31T04:23:51;11.95;;;5.22;;
7199;SDS011;3641;49.082;8.200;2023-08-31T04:26:18;8.32;;;4.57;;
7199;SDS011;3641;49.082;8.200;2023-08-31T04:28:45;12.43;;;4.45;;
7199;SDS011;3641;49.082;8.200;2023-08-31T04:31:12;6.72;;;4.45;;
7199;SDS011;3641;49.082;8.200;2023-08-31T04:33:39;8.07;;;4.20;;
7199;SDS011;3641;49.082;8.200;2023-08-31T04:36:06;8.70;;;4.78;;
7199;SDS011;3641;49.082;8.200;2023-08-31T04:38:31;7.75;;;4.13;;
7199;SDS011;3641;49.082;8.200;2023-08-31T04:40:58;10.13;;;4.63;;
7199;SDS011;3641;49.082;8.200;2023-08-31T04:43:25;9.25;;;4.10;;
7199;SDS011;3641;49.082;8.200;2023-08-31T04:45:52;9.30;;;4.65;;
7199;SDS011;3641;49.082;8.200;2023-08-31T04:48:18;7.30;;;4.30;;
7199;SDS011;3641;49.082;8.200;2023-08-31T04:50:46;8.02;;;4.55;;
7199;SDS011;3641;49.082;8.200;2023-08-31T04:53:13;10.23;;;4.55;;
7199;SDS011;3641;49.082;8.200;2023-08-31T04:55:39;6.07;;;4.20;;
7199;SDS011;3641;49.082;8.200;2023-08-31T04:58:06;8.27;;;3.97;;
7199;SDS011;3641;49.082;8.200;2023-08-31T05:00:32;8.43;;;4.35;;
7199;SDS011;3641;49.082;8.200;2023-08-31T05:02:59;9.57;;;4.38;;
7199;SDS011;3641;49.082;8.200;2023-08-31T05:05:25;7.03;;;3.90;;
7199;SDS011;3641;49.082;8.200;2023-08-31T05:07:53;8.70;;;4.13;;
7199;SDS011;3641;49.082;8.200;2023-08-31T05:10:19;7.78;;;3.78;;
7199;SDS011;3641;49.082;8.200;2023-08-31T05:12:46;6.35;;;4.10;;
7199;SDS011;3641;49.082;8.200;2023-08-31T05:15:13;8.73;;;3.60;;
7199;SDS011;3641;49.082;8.200;2023-08-31T05:17:40;6.85;;;4.20;;
7199;SDS011;3641;49.082;8.200;2023-08-31T05:20:07;7.00;;;3.80;;
7199;SDS011;3641;49.082;8.200;2023-08-31T05:22:35;7.07;;;3.65;;
7199;SDS011;3641;49.082;8.200;2023-08-31T05:25:03;9.48;;;3.80;;
7199;SDS011;3641;49.082;8.200;2023-08-31T05:27:30;6.03;;;3.72;;
7199;SDS011;3641;49.082;8.200;2023-08-31T05:29:56;7.63;;;3.70;;
7199;SDS011;3641;49.082;8.200;2023-08-31T05:32:23;6.18;;;3.50;;
7199;SDS011;3641;49.082;8.200;2023-08-31T05:34:49;6.78;;;3.85;;
7199;SDS011;3641;49.082;8.200;2023-08-31T05:37:15;7.07;;;3.42;;
7199;SDS011;3641;49.082;8.200;2023-08-31T05:39:42;8.02;;;3.60;;
7199;SDS011;3641;49.082;8.200;2023-08-31T05:42:15;6.13;;;3.58;;
7199;SDS011;3641;49.082;8.200;2023-08-31T05:44:41;8.82;;;3.60;;
7199;SDS011;3641;49.082;8.200;2023-08-31T05:47:08;8.00;;;3.47;;
7199;SDS011;3641;49.082;8.200;2023-08-31T05:49:34;5.82;;;3.45;;
7199;SDS011;3641;49.082;8.200;2023-08-31T05:52:01;7.65;;;3.40;;
7199;SDS011;3641;49.082;8.200;2023-08-31T05:54:27;6.90;;;3.80;;
7199;SDS011;3641;49.082;8.200;2023-08-31T05:56:53;8.13;;;4.07;;
7199;SDS011;3641;49.082;8.200;2023-08-31T05:59:21;8.15;;;4.03;;
7199;SDS011;3641;49.082;8.200;2023-08-31T06:01:48;7.75;;;4.00;;
7199;SDS011;3641;49.082;8.200;2023-08-31T06:04:15;10.10;;;4.45;;
7199;SDS011;3641;49.082;8.200;2023-08-31T06:06:41;7.55;;;4.22;;
7199;SDS011;3641;49.082;8.200;2023-08-31T06:09:08;9.15;;;5.03;;
7199;SDS011;3641;49.082;8.200;2023-08-31T06:11:36;8.20;;;4.05;;
7199;SDS011;3641;49.082;8.200;2023-08-31T06:14:04;8.73;;;4.10;;
7199;SDS011;3641;49.082;8.200;2023-08-31T06:16:32;9.13;;;4.38;;
7199;SDS011;3641;49.082;8.200;2023-08-31T06:18:59;9.77;;;4.22;;
7199;SDS011;3641;49.082;8.200;2023-08-31T06:21:25;8.02;;;4.95;;
7199;SDS011;3641;49.082;8.200;2023-08-31T06:23:52;10.40;;;4.55;;
7199;SDS011;3641;49.082;8.200;2023-08-31T06:26:18;9.32;;;4.63;;
7199;SDS011;3641;49.082;8.200;2023-08-31T06:28:44;9.38;;;4.40;;
7199;SDS011;3641;49.082;8.200;2023-08-31T06:31:11;7.25;;;3.92;;
7199;SDS011;3641;49.082;8.200;2023-08-31T06:33:39;6.78;;;4.25;;
7199;SDS011;3641;49.082;8.200;2023-08-31T06:36:05;9.77;;;4.10;;
7199;SDS011;3641;49.082;8.200;2023-08-31T06:38:32;9.50;;;5.18;;
7199;SDS011;3641;49.082;8.200;2023-08-31T06:40:59;9.02;;;4.28;;
7199;SDS011;3641;49.082;8.200;2023-08-31T06:43:27;7.88;;;4.00;;
7199;SDS011;3641;49.082;8.200;2023-08-31T06:45:54;8.68;;;5.18;;
7199;SDS011;3641;49.082;8.200;2023-08-31T06:48:20;8.32;;;4.10;;
7199;SDS011;3641;49.082;8.200;2023-08-31T06:50:48;7.32;;;4.55;;
7199;SDS011;3641;49.082;8.200;2023-08-31T06:53:14;9.63;;;5.32;;
7199;SDS011;3641;49.082;8.200;2023-08-31T06:55:41;9.88;;;5.10;;
7199;SDS011;3641;49.082;8.200;2023-08-31T06:58:07;7.93;;;5.03;;
7199;SDS011;3641;49.082;8.200;2023-08-31T07:00:34;9.05;;;4.43;;
7199;SDS011;3641;49.082;8.200;2023-08-31T07:03:00;8.20;;;4.43;;
7199;SDS011;3641;49.082;8.200;2023-08-31T07:05:27;9.73;;;4.40;;
7199;SDS011;3641;49.082;8.200;2023-08-31T07:07:56;10.55;;;4.45;;
7199;SDS011;3641;49.082;8.200;2023-08-31T07:10:23;9.23;;;5.28;;
7199;SDS011;3641;49.082;8.200;2023-08-31T07:12:49;9.90;;;4.95;;
7199;SDS011;3641;49.082;8.200;2023-08-31T07:15:16;8.93;;;4.65;;
7199;SDS011;3641;49.082;8.200;2023-08-31T07:17:42;8.57;;;4.70;;
7199;SDS011;3641;49.082;8.200;2023-08-31T07:20:09;10.38;;;4.25;;
7199;SDS011;3641;49.082;8.200;2023-08-31T07:22:37;10.60;;;4.72;;
7199;SDS011;3641;49.082;8.200;2023-08-31T07:25:07;11.32;;;5.22;;
7199;SDS011;3641;49.082;8.200;2023-08-31T07:27:33;11.32;;;5.38;;
7199;SDS011;3641;49.082;8.200;2023-08-31T07:30:00;10.05;;;4.90;;
7199;SDS011;3641;49.082;8.200;2023-08-31T07:32:28;9.95;;;5.28;;
7199;SDS011;3641;49.082;8.200;2023-08-31T07:34:54;9.45;;;4.55;;
7199;SDS011;3641;49.082;8.200;2023-08-31T07:37:21;12.73;;;5.28;;
7199;SDS011;3641;49.082;8.200;2023-08-31T07:39:48;9.30;;;4.03;;
7199;SDS011;3641;49.082;8.200;2023-08-31T07:42:15;10.05;;;4.93;;
7199;SDS011;3641;49.082;8.200;2023-08-31T07:44:42;13.48;;;3.78;;
7199;SDS011;3641;49.082;8.200;2023-08-31T07:47:09;5.75;;;3.35;;
7199;SDS011;3641;49.082;8.200;2023-08-31T07:49:36;8.75;;;3.22;;
7199;SDS011;3641;49.082;8.200;2023-08-31T07:52:02;9.27;;;3.40;;
7199;SDS011;3641;49.082;8.200;2023-08-31T07:54:29;7.57;;;2.92;;
7199;SDS011;3641;49.082;8.200;2023-08-31T07:56:56;8.40;;;3.30;;
7199;SDS011;3641;49.082;8.200;2023-08-31T07:59:24;6.85;;;3.08;;
7199;SDS011;3641;49.082;8.200;2023-08-31T08:01:50;7.72;;;3.10;;
7199;SDS011;3641;49.082;8.200;2023-08-31T08:04:16;5.05;;;2.80;;
7199;SDS011;3641;49.082;8.200;2023-08-31T08:06:44;11.95;;;3.63;;
7199;SDS011;3641;49.082;8.200;2023-08-31T08:09:11;6.47;;;2.70;;
7199;SDS011;3641;49.082;8.200;2023-08-31T08:11:37;7.50;;;2.75;;
7199;SDS011;3641;49.082;8.200;2023-08-31T08:14:04;7.63;;;2.88;;
7199;SDS011;3641;49.082;8.200;2023-08-31T08:16:32;7.50;;;3.17;;
7199;SDS011;3641;49.082;8.200;2023-08-31T08:19:00;6.43;;;2.63;;
7199;SDS011;3641;49.082;8.200;2023-08-31T08:21:27;6.30;;;2.50;;
7199;SDS011;3641;49.082;8.200;2023-08-31T08:23:53;7.43;;;2.55;;
7199;SDS011;3641;49.082;8.200;2023-08-31T08:26:19;9.68;;;3.40;;
7199;SDS011;3641;49.082;8.200;2023-08-31T08:28:46;5.80;;;2.60;;
7199;SDS011;3641;49.082;8.200;2023-08-31T08:31:12;8.75;;;2.30;;
7199;SDS011;3641;49.082;8.200;2023-08-31T08:33:40;7.28;;;2.72;;
7199;SDS011;3641;49.082;8.200;2023-08-31T08:36:07;6.40;;;2.70;;
7199;SDS011;3641;49.082;8.200;2023-08-31T08:38:33;7.55;;;2.33;;
7199;SDS011;3641;49.082;8.200;2023-08-31T08:41:03;6.32;;;2.42;;
7199;SDS011;3641;49.082;8.200;2023-08-31T08:43:30;7.55;;;2.60;;
7199;SDS011;3641;49.082;8.200;2023-08-31T08:45:59;6.10;;;2.50;;
7199;SDS011;3641;49.082;8.200;2023-08-31T08:48:30;6.88;;;2.50;;
7199;SDS011;3641;49.082;8.200;2023-08-31T08:50:59;5.45;;;2.20;;
7199;SDS011;3641;49.082;8.200;2023-08-31T08:53:26;10.70;;;2.70;;
7199;SDS011;3641;49.082;8.200;2023-08-31T08:55:53;6.00;;;2.85;;
7199;SDS011;3641;49.082;8.200;2023-08-31T08:58:19;5.88;;;2.45;;
7199;SDS011;3641;49.082;8.200;2023-08-31T09:00:45;6.72;;;2.70;;
7199;SDS011;3641;49.082;8.200;2023-08-31T09:03:13;6.97;;;2.90;;
7199;SDS011;3641;49.082;8.200;2023-08-31T09:05:39;6.45;;;2.38;;
7199;SDS011;3641;49.082;8.200;2023-08-31T09:08:08;5.20;;;2.33;;
7199;SDS011;3641;49.082;8.200;2023-08-31T09:10:35;5.32;;;2.53;;
7199;SDS011;3641;49.082;8.200;2023-08-31T09:13:05;6.55;;;2.60;;
7199;SDS011;3641;49.082;8.200;2023-08-31T09:15:39;8.15;;;2.70;;
7199;SDS011;3641;49.082;8.200;2023-08-31T09:18:07;5.85;;;2.53;;
7199;SDS011;3641;49.082;8.200;2023-08-31T09:20:42;5.63;;;2.50;;
7199;SDS011;3641;49.082;8.200;2023-08-31T09:23:10;6.82;;;2.80;;
7199;SDS011;3641;49.082;8.200;2023-08-31T09:25:40;7.82;;;2.78;;
7199;SDS011;3641;49.082;8.200;2023-08-31T09:28:08;4.88;;;2.40;;
7199;SDS011;3641;49.082;8.200;2023-08-31T09:30:35;7.47;;;2.50;;
7199;SDS011;3641;49.082;8.200;2023-08-31T09:33:02;6.53;;;2.55;;
7199;SDS011;3641;49.082;8.200;2023-08-31T09:35:29;5.90;;;2.33;;
7199;SDS011;3641;49.082;8.200;2023-08-31T09:37:56;6.78;;;2.30;;
7199;SDS011;3641;49.082;8.200;2023-08-31T09:40:24;6.20;;;2.05;;
7199;SDS011;3641;49.082;8.200;2023-08-31T09:42:51;7.00;;;2.40;;
7199;SDS011;3641;49.082;8.200;2023-08-31T09:45:17;5.95;;;2.47;;
7199;SDS011;3641;49.082;8.200;2023-08-31T09:47:50;6.50;;;2.55;;
7199;SDS011;3641;49.082;8.200;2023-08-31T09:50:17;5.90;;;2.35;;
7199;SDS011;3641;49.082;8.200;2023-08-31T09:52:45;6.63;;;2.72;;
7199;SDS011;3641;49.082;8.200;2023-08-31T09:55:13;9.90;;;3.67;;
7199;SDS011;3641;49.082;8.200;2023-08-31T09:57:43;6.70;;;2.38;;
7199;SDS011;3641;49.082;8.200;2023-08-31T10:00:11;10.45;;;2.50;;
7199;SDS011;3641;49.082;8.200;2023-08-31T10:02:40;6.97;;;2.97;;
7199;SDS011;3641;49.082;8.200;2023-08-31T10:05:08;5.05;;;2.40;;
7199;SDS011;3641;49.082;8.200;2023-08-31T10:07:34;7.18;;;2.40;;
7199;SDS011;3641;49.082;8.200;2023-08-31T10:10:02;7.25;;;2.42;;
7199;SDS011;3641;49.082;8.200;2023-08-31T10:12:29;8.00;;;3.03;;
7199;SDS011;3641;49.082;8.200;2023-08-31T10:14:58;7.28;;;2.70;;
7199;SDS011;3641;49.082;8.200;2023-08-31T10:17:26;6.95;;;2.75;;
7199;SDS011;3641;49.082;8.200;2023-08-31T10:19:53;7.45;;;2.22;;
7199;SDS011;3641;49.082;8.200;2023-08-31T10:22:21;6.03;;;2.15;;
7199;SDS011;3641;49.082;8.200;2023-08-31T10:24:56;8.20;;;2.45;;
7199;SDS011;3641;49.082;8.200;2023-08-31T10:27:23;7.28;;;2.47;;
7199;SDS011;3641;49.082;8.200;2023-08-31T10:29:50;5.88;;;2.60;;
7199;SDS011;3641;49.082;8.200;2023-08-31T10:32:18;7.07;;;2.00;;
7199;SDS011;3641;49.082;8.200;2023-08-31T10:35:02;4.68;;;1.92;;
7199;SDS011;3641;49.082;8.200;2023-08-31T10:37:31;6.45;;;2.30;;
7199;SDS011;3641;49.082;8.200;2023-08-31T10:40:06;6.85;;;1.90;;
7199;SDS011;3641;49.082;8.200;2023-08-31T10:42:40;7.03;;;1.95;;
7199;SDS011;3641;49.082;8.200;2023-08-31T10:45:07;7.05;;;2.30;;
7199;SDS011;3641;49.082;8.200;2023-08-31T10:47:39;6.57;;;2.10;;
7199;SDS011;3641;49.082;8.200;2023-08-31T10:50:16;7.63;;;2.10;;
7199;SDS011;3641;49.082;8.200;2023-08-31T10:52:44;7.00;;;2.30;;
7199;SDS011;3641;49.082;8.200;2023-08-31T10:55:11;8.90;;;2.30;;
7199;SDS011;3641;49.082;8.200;2023-08-31T10:57:38;5.30;;;2.17;;
7199;SDS011;3641;49.082;8.200;2023-08-31T11:00:06;6.45;;;2.05;;
7199;SDS011;3641;49.082;8.200;2023-08-31T11:02:34;8.23;;;2.90;;
7199;SDS011;3641;49.082;8.200;2023-08-31T11:05:05;6.35;;;1.85;;
7199;SDS011;3641;49.082;8.200;2023-08-31T11:07:33;8.98;;;2.25;;
7199;SDS011;3641;49.082;8.200;2023-08-31T11:10:14;8.75;;;2.10;;
7199;SDS011;3641;49.082;8.200;2023-08-31T11:12:42;5.28;;;2.08;;
7199;SDS011;3641;49.082;8.200;2023-08-31T11:15:11;8.25;;;2.28;;
7199;SDS011;3641;49.082;8.200;2023-08-31T11:17:39;6.82;;;2.50;;
7199;SDS011;3641;49.082;8.200;2023-08-31T11:20:08;8.95;;;2.45;;
7199;SDS011;3641;49.082;8.200;2023-08-31T11:22:38;7.80;;;2.50;;
7199;SDS011;3641;49.082;8.200;2023-08-31T11:25:06;6.30;;;2.05;;
7199;SDS011;3641;49.082;8.200;2023-08-31T11:27:33;5.15;;;2.25;;
7199;SDS011;3641;49.082;8.200;2023-08-31T11:29:59;9.43;;;2.35;;
7199;SDS011;3641;49.082;8.200;2023-08-31T11:32:26;5.10;;;1.80;;
7199;SDS011;3641;49.082;8.200;2023-08-31T11:34:52;5.45;;;2.10;;
7199;SDS011;3641;49.082;8.200;2023-08-31T11:37:20;9.45;;;2.20;;
7199;SDS011;3641;49.082;8.200;2023-08-31T11:39:48;9.32;;;2.35;;
7199;SDS011;3641;49.082;8.200;2023-08-31T11:42:15;5.05;;;1.80;;
7199;SDS011;3641;49.082;8.200;2023-08-31T11:44:43;6.32;;;2.17;;
7199;SDS011;3641;49.082;8.200;2023-08-31T11:47:10;6.18;;;2.05;;
7199;SDS011;3641;49.082;8.200;2023-08-31T11:49:36;7.28;;;2.50;;
7199;SDS011;3641;49.082;8.200;2023-08-31T11:52:03;6.25;;;2.22;;
7199;SDS011;3641;49.082;8.200;2023-08-31T11:54:32;8.93;;;2.22;;
7199;SDS011;3641;49.082;8.200;2023-08-31T11:56:59;8.27;;;2.25;;
7199;SDS011;3641;49.082;8.200;2023-08-31T11:59:25;7.90;;;2.35;;
7199;SDS011;3641;49.082;8.200;2023-08-31T12:01:51;9.75;;;2.40;;
7199;SDS011;3641;49.082;8.200;2023-08-31T12:04:19;8.00;;;2.28;;
7199;SDS011;3641;49.082;8.200;2023-08-31T12:06:47;6.65;;;2.05;;
7199;SDS011;3641;49.082;8.200;2023-08-31T12:09:16;6.95;;;2.20;;
7199;SDS011;3641;49.082;8.200;2023-08-31T12:11:50;5.78;;;2.17;;
7199;SDS011;3641;49.082;8.200;2023-08-31T12:14:18;6.60;;;2.55;;
7199;SDS011;3641;49.082;8.200;2023-08-31T12:16:44;6.35;;;2.00;;
7199;SDS011;3641;49.082;8.200;2023-08-31T12:19:11;5.85;;;1.80;;
7199;SDS011;3641;49.082;8.200;2023-08-31T12:21:37;4.70;;;1.80;;
7199;SDS011;3641;49.082;8.200;2023-08-31T12:24:04;5.40;;;2.10;;
7199;SDS011;3641;49.082;8.200;2023-08-31T12:26:31;8.80;;;2.08;;
7199;SDS011;3641;49.082;8.200;2023-08-31T12:28:59;7.32;;;1.98;;
7199;SDS011;3641;49.082;8.200;2023-08-31T12:31:25;8.68;;;1.95;;
7199;SDS011;3641;49.082;8.200;2023-08-31T12:33:52;9.43;;;2.50;;
7199;SDS011;3641;49.082;8.200;2023-08-31T12:36:18;5.95;;;2.05;;
7199;SDS011;3641;49.082;8.200;2023-08-31T12:38:45;7.18;;;2.78;;
7199;SDS011;3641;49.082;8.200;2023-08-31T12:41:12;9.02;;;2.28;;
7199;SDS011;3641;49.082;8.200;2023-08-31T12:43:38;6.93;;;2.13;;
7199;SDS011;3641;49.082;8.200;2023-08-31T12:46:06;9.38;;;2.35;;
7199;SDS011;3641;49.082;8.200;2023-08-31T12:48:34;6.38;;;2.13;;
7199;SDS011;3641;49.082;8.200;2023-08-31T12:51:00;8.13;;;1.83;;
7199;SDS011;3641;49.082;8.200;2023-08-31T12:53:27;6.05;;;2.20;;
7199;SDS011;3641;49.082;8.200;2023-08-31T12:55:54;6.28;;;2.45;;
7199;SDS011;3641;49.082;8.200;2023-08-31T12:58:20;5.43;;;2.13;;
7199;SDS011;3641;49.082;8.200;2023-08-31T13:00:47;5.45;;;1.90;;
7199;SDS011;3641;49.082;8.200;2023-08-31T13:03:16;8.32;;;1.85;;
7199;SDS011;3641;49.082;8.200;2023-08-31T13:05:42;5.72;;;2.53;;
7199;SDS011;3641;49.082;8.200;2023-08-31T13:08:09;6.43;;;2.00;;
7199;SDS011;3641;49.082;8.200;2023-08-31T13:10:35;8.25;;;2.63;;
7199;SDS011;3641;49.082;8.200;2023-08-31T13:13:01;6.85;;;2.25;;
7199;SDS011;3641;49.082;8.200;2023-08-31T13:15:28;6.75;;;2.42;;
7199;SDS011;3641;49.082;8.200;2023-08-31T13:17:54;6.75;;;2.53;;
7199;SDS011;3641;49.082;8.200;2023-08-31T13:20:22;7.82;;;1.85;;
7199;SDS011;3641;49.082;8.200;2023-08-31T13:22:49;5.68;;;2.10;;
7199;SDS011;3641;49.082;8.200;2023-08-31T13:25:16;7.43;;;2.05;;
7199;SDS011;3641;49.082;8.200;2023-08-31T13:27:43;8.95;;;2.47;;
7199;SDS011;3641;49.082;8.200;2023-08-31T13:30:10;5.90;;;2.05;;
7199;SDS011;3641;49.082;8.200;2023-08-31T13:32:37;7.38;;;2.10;;
7199;SDS011;3641;49.082;8.200;2023-08-31T13:35:04;10.63;;;2.03;;
7199;SDS011;3641;49.082;8.200;2023-08-31T13:37:34;9.45;;;2.20;;
7199;SDS011;3641;49.082;8.200;2023-08-31T13:40:00;9.07;;;1.90;;
7199;SDS011;3641;49.082;8.200;2023-08-31T13:42:33;8.18;;;2.22;;
7199;SDS011;3641;49.082;8.200;2023-08-31T13:45:00;7.18;;;2.03;;
7199;SDS011;3641;49.082;8.200;2023-08-31T13:47:31;5.50;;;1.83;;
7199;SDS011;3641;49.082;8.200;2023-08-31T13:49:57;7.65;;;2.00;;
7199;SDS011;3641;49.082;8.200;2023-08-31T13:52:24;4.68;;;1.98;;
7199;SDS011;3641;49.082;8.200;2023-08-31T13:54:52;6.18;;;2.10;;
7199;SDS011;3641;49.082;8.200;2023-08-31T13:57:18;5.70;;;2.05;;
7199;SDS011;3641;49.082;8.200;2023-08-31T13:59:45;10.10;;;2.58;;
7199;SDS011;3641;49.082;8.200;2023-08-31T14:02:11;8.63;;;2.17;;
7199;SDS011;3641;49.082;8.200;2023-08-31T14:04:38;5.47;;;1.90;;
7199;SDS011;3641;49.082;8.200;2023-08-31T14:07:04;10.50;;;2.35;;
7199;SDS011;3641;49.082;8.200;2023-08-31T14:09:33;7.20;;;2.03;;
7199;SDS011;3641;49.082;8.200;2023-08-31T14:12:01;5.22;;;2.10;;
7199;SDS011;3641;49.082;8.200;2023-08-31T14:14:28;13.52;;;2.30;;
7199;SDS011;3641;49.082;8.200;2023-08-31T14:16:55;6.63;;;1.90;;
7199;SDS011;3641;49.082;8.200;2023-08-31T14:19:21;9.45;;;2.08;;
7199;SDS011;3641;49.082;8.200;2023-08-31T14:21:48;7.72;;;2.08;;
7199;SDS011;3641;49.082;8.200;2023-08-31T14:24:14;7.72;;;2.95;;
7199;SDS011;3641;49.082;8.200;2023-08-31T14:26:41;11.13;;;2.17;;
7199;SDS011;3641;49.082;8.200;2023-08-31T14:29:08;6.20;;;2.33;;
7199;SDS011;3641;49.082;8.200;2023-08-31T14:31:35;7.40;;;2.20;;
7199;SDS011;3641;49.082;8.200;2023-08-31T14:34:01;5.88;;;1.95;;
7199;SDS011;3641;49.082;8.200;2023-08-31T14:36:27;6.28;;;2.28;;
7199;SDS011;3641;49.082;8.200;2023-08-31T14:38:54;9.35;;;2.65;;
7199;SDS011;3641;49.082;8.200;2023-08-31T14:41:20;8.48;;;2.20;;
7199;SDS011;3641;49.082;8.200;2023-08-31T14:43:47;7.28;;;2.40;;
7199;SDS011;3641;49.082;8.200;2023-08-31T14:46:14;7.85;;;1.98;;
7199;SDS011;3641;49.082;8.200;2023-08-31T14:48:41;6.68;;;2.72;;
7199;SDS011;3641;49.082;8.200;2023-08-31T14:51:08;7.00;;;2.35;;
7199;SDS011;3641;49.082;8.200;2023-08-31T14:53:35;6.68;;;2.35;;
7199;SDS011;3641;49.082;8.200;2023-08-31T14:56:01;8.05;;;2.28;;
7199;SDS011;3641;49.082;8.200;2023-08-31T14:58:28;7.68;;;2.60;;
7199;SDS011;3641;49.082;8.200;2023-08-31T15:00:55;6.57;;;1.98;;
7199;SDS011;3641;49.082;8.200;2023-08-31T15:03:23;5.80;;;2.13;;
7199;SDS011;3641;49.082;8.200;2023-08-31T15:05:50;7.38;;;2.10;;
7199;SDS011;3641;49.082;8.200;2023-08-31T15:08:16;10.40;;;2.50;;
7199;SDS011;3641;49.082;8.200;2023-08-31T15:10:43;8.48;;;3.00;;
7199;SDS011;3641;49.082;8.200;2023-08-31T15:13:09;7.60;;;2.38;;
7199;SDS011;3641;49.082;8.200;2023-08-31T15:15:36;6.70;;;2.20;;